createdAt,value
2022-07-30T00:01:14.058Z,101486.22
2022-07-30T00:03:40.684Z,101489.94
2022-07-30T00:06:07.162Z,101488.56
2022-07-30T00:08:34.081Z,101488.38
2022-07-30T00:11:00.647Z,101490.88
2022-07-30T00:13:27.312Z,101487.78
2022-07-30T00:15:54.199Z,101487.59
2022-07-30T00:18:21.209Z,101490.13
2022-07-30T00:20:48.922Z,101487.22
2022-07-30T00:23:15.626Z,101485.34
2022-07-30T00:25:42.231Z,101489.75
2022-07-30T00:28:08.687Z,101479.28
2022-07-30T00:30:35.462Z,101483.69
2022-07-30T00:33:02.240Z,101487.22
2022-07-30T00:35:28.875Z,101485.53
2022-07-30T00:37:55.345Z,101485.91
2022-07-30T00:40:22.099Z,101483.41
2022-07-30T00:42:48.636Z,101480.03
2022-07-30T00:45:16.916Z,101474.81
2022-07-30T00:47:44.297Z,101470.81
2022-07-30T00:50:13.578Z,101468.09
2022-07-30T00:52:41.246Z,101466.97
2022-07-30T00:55:10.242Z,101476.78
2022-07-30T00:57:37.095Z,101469.00
2022-07-30T01:00:09.386Z,101464.63
2022-07-30T01:02:36.159Z,101458.34
2022-07-30T01:05:02.748Z,101452.03
2022-07-30T01:07:29.298Z,101456.44
2022-07-30T01:09:55.911Z,101467.44
2022-07-30T01:12:26.193Z,101464.72
2022-07-30T01:14:55.417Z,101457.16
2022-07-30T01:17:21.988Z,101445.31
2022-07-30T01:19:56.307Z,101452.59
2022-07-30T01:22:30.326Z,101447.16
2022-07-30T01:25:03.512Z,101458.84
2022-07-30T01:27:38.484Z,101451.94
2022-07-30T01:30:06.379Z,101444.81
2022-07-30T01:32:36.613Z,101445.66
2022-07-30T01:35:04.687Z,101444.81
2022-07-30T01:37:34.863Z,101440.91
2022-07-30T01:40:01.707Z,101446.50
2022-07-30T01:42:29.808Z,101438.78
2022-07-30T01:44:58.435Z,101445.84
2022-07-30T01:47:25.867Z,101436.09
2022-07-30T01:49:54.709Z,101438.78
2022-07-30T01:52:23.333Z,101432.53
2022-07-30T01:54:52.374Z,101437.72
2022-07-30T01:57:21.102Z,101435.03
2022-07-30T01:59:52.033Z,101436.72
2022-07-30T02:02:18.700Z,101439.63
2022-07-30T02:04:45.299Z,101437.94
2022-07-30T02:07:22.948Z,101426.28
2022-07-30T02:09:58.012Z,101436.53
2022-07-30T02:12:28.646Z,101430.66
2022-07-30T02:15:06.700Z,101433.81
2022-07-30T02:17:39.737Z,101433.16
2022-07-30T02:20:13.485Z,101432.91
2022-07-30T02:22:45.078Z,101433.75
2022-07-30T02:25:15.216Z,101433.56
2022-07-30T02:27:43.437Z,101428.69
2022-07-30T02:30:11.174Z,101423.94
2022-07-30T02:32:40.841Z,101428.88
2022-07-30T02:35:27.392Z,101427.31
2022-07-30T02:37:54.806Z,101429.91
2022-07-30T02:40:23.363Z,101429.72
2022-07-30T02:42:52.585Z,101432.41
2022-07-30T02:45:20.092Z,101427.00
2022-07-30T02:47:51.091Z,101432.25
2022-07-30T02:50:20.095Z,101427.84
2022-07-30T02:52:47.761Z,101433.44
2022-07-30T02:55:17.819Z,101438.03
2022-07-30T02:57:46.125Z,101431.41
2022-07-30T03:00:13.058Z,101434.09
2022-07-30T03:02:42.853Z,101429.72
2022-07-30T03:05:11.598Z,101432.41
2022-07-30T03:07:40.358Z,101427.00
2022-07-30T03:10:08.552Z,101421.78
2022-07-30T03:12:37.193Z,101419.63
2022-07-30T03:15:04.134Z,101429.91
2022-07-30T03:17:37.441Z,101428.88
2022-07-30T03:20:08.894Z,101429.91
2022-07-30T03:22:40.241Z,101428.41
2022-07-30T03:25:08.207Z,101425.03
2022-07-30T03:27:38.104Z,101423.16
2022-07-30T03:30:06.094Z,101422.53
2022-07-30T03:32:34.370Z,101417.16
2022-07-30T03:35:05.895Z,101424.78
2022-07-30T03:37:35.563Z,101424.25
2022-07-30T03:40:02.701Z,101419.03
2022-07-30T03:42:29.630Z,101414.81
2022-07-30T03:44:57.311Z,101417.06
2022-07-30T03:47:24.741Z,101422.38
2022-07-30T03:49:52.512Z,101421.38
2022-07-30T03:52:20.003Z,101420.03
2022-07-30T03:54:47.565Z,101421.44
2022-07-30T03:57:17.581Z,101417.03
2022-07-30T03:59:51.673Z,101418.47
2022-07-30T04:02:18.438Z,101419.28
2022-07-30T04:04:44.889Z,101423.88
2022-07-30T04:07:11.358Z,101417.63
2022-07-30T04:09:37.914Z,101419.47
2022-07-30T04:12:04.589Z,101413.41
2022-07-30T04:14:42.342Z,101418.06
2022-07-30T04:17:25.928Z,101420.59
2022-07-30T04:19:56.345Z,101427.69
2022-07-30T04:22:33.886Z,101427.31
2022-07-30T04:25:02.222Z,101438.63
2022-07-30T04:27:31.255Z,101430.81
2022-07-30T04:29:57.868Z,101429.38
2022-07-30T04:32:24.384Z,101420.72
2022-07-30T04:34:53.859Z,101426.47
2022-07-30T04:37:22.911Z,101424.19
2022-07-30T04:39:51.422Z,101423.16
2022-07-30T04:42:17.865Z,101437.84
2022-07-30T04:44:44.343Z,101433.75
2022-07-30T04:47:10.823Z,101432.31
2022-07-30T04:49:39.098Z,101434.84
2022-07-30T04:52:06.747Z,101436.34
2022-07-30T04:54:38.916Z,101432.41
2022-07-30T04:57:07.135Z,101437.66
2022-07-30T04:59:37.211Z,101434.09
2022-07-30T05:02:05.812Z,101437.47
2022-07-30T05:04:33.342Z,101440.19
2022-07-30T05:07:01.688Z,101444.56
2022-07-30T05:09:31.643Z,101440.00
2022-07-30T05:11:59.311Z,101436.44
2022-07-30T05:14:26.868Z,101440.00
2022-07-30T05:16:54.774Z,101437.47
2022-07-30T05:19:21.722Z,101443.53
2022-07-30T05:21:48.224Z,101441.03
2022-07-30T05:24:15.079Z,101453.53
2022-07-30T05:26:41.516Z,101449.81
2022-07-30T05:29:08.282Z,101442.69
2022-07-30T05:31:35.577Z,101451.00
2022-07-30T05:34:04.970Z,101443.53
2022-07-30T05:36:31.553Z,101453.34
2022-07-30T05:38:58.213Z,101455.22
2022-07-30T05:41:32.373Z,101451.66
2022-07-30T05:44:00.240Z,101449.63
2022-07-30T05:46:27.113Z,101445.03
2022-07-30T05:48:53.993Z,101452.09
2022-07-30T05:51:22.072Z,101454.19
2022-07-30T05:53:48.602Z,101460.88
2022-07-30T05:56:15.057Z,101459.03
2022-07-30T05:58:41.584Z,101456.13
2022-07-30T06:01:08.043Z,101453.25
2022-07-30T06:03:35.113Z,101467.44
2022-07-30T06:06:05.595Z,101458.09
2022-07-30T06:08:32.248Z,101459.97
2022-07-30T06:10:58.767Z,101457.91
2022-07-30T06:13:25.772Z,101455.88
2022-07-30T06:15:52.726Z,101460.44
2022-07-30T06:18:19.296Z,101452.50
2022-07-30T06:20:51.682Z,101458.56
2022-07-30T06:23:18.380Z,101458.16
2022-07-30T06:25:44.961Z,101473.59
2022-07-30T06:28:35.910Z,101470.25
2022-07-30T06:30:57.938Z,101466.47
2022-07-30T06:33:24.338Z,101475.25
2022-07-30T06:35:50.794Z,101479.00
2022-07-30T06:38:17.426Z,101468.38
2022-07-30T06:40:43.859Z,101472.75
2022-07-30T06:43:10.395Z,101462.75
2022-07-30T06:45:36.867Z,101474.25
2022-07-30T06:48:03.616Z,101479.66
2022-07-30T06:50:30.086Z,101473.59
2022-07-30T06:52:56.512Z,101478.25
2022-07-30T06:55:22.974Z,101479.28
2022-07-30T06:57:49.448Z,101481.81
2022-07-30T07:00:16.135Z,101481.63
2022-07-30T07:02:43.369Z,101481.44
2022-07-30T07:05:11.010Z,101485.00
2022-07-30T07:07:42.193Z,101479.56
2022-07-30T07:10:13.061Z,101480.66
2022-07-30T07:12:39.519Z,101494.03
2022-07-30T07:15:06.510Z,101489.25
2022-07-30T07:17:32.947Z,101484.31
2022-07-30T07:20:02.365Z,101482.25
2022-07-30T07:22:29.757Z,101491.13
2022-07-30T07:24:56.367Z,101485.34
2022-07-30T07:27:22.973Z,101483.75
2022-07-30T07:30:04.995Z,101478.59
2022-07-30T07:32:33.678Z,101481.38
2022-07-30T07:35:00.233Z,101485.00
2022-07-30T07:37:27.008Z,101484.22
2022-07-30T07:39:53.800Z,101485.34
2022-07-30T07:42:20.235Z,101486.25
2022-07-30T07:44:46.695Z,101484.91
2022-07-30T07:47:13.173Z,101484.94
2022-07-30T07:49:39.614Z,101491.53
2022-07-30T07:52:06.501Z,101493.31
2022-07-30T07:54:33.099Z,101494.00
2022-07-30T07:57:00.784Z,101483.22
2022-07-30T07:59:40.227Z,101488.94
2022-07-30T08:02:08.061Z,101488.59
2022-07-30T08:04:35.336Z,101495.16
2022-07-30T08:07:02.404Z,101489.75
2022-07-30T08:09:43.816Z,101489.41
2022-07-30T08:12:12.510Z,101495.31
2022-07-30T08:14:39.094Z,101496.22
2022-07-30T08:17:06.185Z,101505.06
2022-07-30T08:19:33.489Z,101501.31
2022-07-30T08:22:00.108Z,101503.69
2022-07-30T08:24:26.902Z,101493.84
2022-07-30T08:26:53.511Z,101492.47
2022-07-30T08:29:20.013Z,101501.25
2022-07-30T08:31:46.497Z,101499.41
2022-07-30T08:34:13.590Z,101500.69
2022-07-30T08:36:40.267Z,101500.53
2022-07-30T08:39:06.738Z,101495.75
2022-07-30T08:41:33.340Z,101494.06
2022-07-30T08:44:01.575Z,101500.38
2022-07-30T08:46:31.289Z,101493.47
2022-07-30T08:49:00.591Z,101504.16
2022-07-30T08:51:35.305Z,101503.13
2022-07-30T08:54:03.655Z,101503.31
2022-07-30T08:56:32.596Z,101512.75
2022-07-30T08:59:00.303Z,101519.22
2022-07-30T09:01:27.547Z,101508.53
2022-07-30T09:03:54.131Z,101515.66
2022-07-30T09:06:20.676Z,101512.09
2022-07-30T09:08:47.301Z,101527.59
2022-07-30T09:11:14.078Z,101520.47
2022-07-30T09:13:42.428Z,101519.00
2022-07-30T09:16:20.922Z,101524.06
2022-07-30T09:18:48.001Z,101519.03
2022-07-30T09:21:15.758Z,101523.66
2022-07-30T09:23:54.998Z,101520.06
2022-07-30T09:26:21.486Z,101530.56
2022-07-30T09:28:48.013Z,101521.97
2022-07-30T09:31:15.834Z,101522.81
2022-07-30T09:33:44.623Z,101529.53
2022-07-30T09:36:18.431Z,101540.22
2022-07-30T09:38:49.401Z,101528.47
2022-07-30T09:41:37.687Z,101531.00
2022-07-30T09:44:06.253Z,101542.91
2022-07-30T09:46:45.417Z,101547.28
2022-07-30T09:49:17.216Z,101543.50
2022-07-30T09:51:55.805Z,101540.16
2022-07-30T09:54:23.549Z,101536.56
2022-07-30T09:57:25.577Z,101543.03
2022-07-30T10:00:16.426Z,101535.06
2022-07-30T10:02:45.339Z,101534.84
2022-07-30T10:05:15.949Z,101544.50
2022-07-30T10:07:52.604Z,101539.84
2022-07-30T10:10:25.583Z,101533.94
2022-07-30T10:13:01.175Z,101537.72
2022-07-30T10:15:33.294Z,101544.81
2022-07-30T10:18:02.615Z,101546.47
2022-07-30T10:20:33.859Z,101546.41
2022-07-30T10:23:08.084Z,101544.31
2022-07-30T10:25:36.777Z,101541.75
2022-07-30T10:28:17.528Z,101532.31
2022-07-30T10:30:45.260Z,101541.13
2022-07-30T10:33:36.265Z,101541.13
2022-07-30T10:35:59.198Z,101547.00
2022-07-30T10:38:32.485Z,101551.00
2022-07-30T10:41:42.550Z,101537.00
2022-07-30T10:44:31.163Z,101549.53
2022-07-30T10:47:09.202Z,101539.69
2022-07-30T10:49:41.037Z,101541.78
2022-07-30T10:52:09.597Z,101540.72
2022-07-30T10:54:47.229Z,101542.16
2022-07-30T10:57:31.856Z,101540.28
2022-07-30T11:00:00.005Z,101542.31
2022-07-30T11:02:30.672Z,101538.97
2022-07-30T11:05:16.095Z,101539.19
2022-07-30T11:07:47.655Z,101540.13
2022-07-30T11:10:37.944Z,101546.94
2022-07-30T11:13:06.662Z,101545.66
2022-07-30T11:15:51.571Z,101553.25
2022-07-30T11:18:18.018Z,101553.25
2022-07-30T11:21:20.673Z,101545.97
2022-07-30T11:23:48.396Z,101549.03
2022-07-30T11:26:52.612Z,101551.50
2022-07-30T11:29:50.498Z,101542.97
2022-07-30T11:32:28.116Z,101545.59
2022-07-30T11:35:17.531Z,101540.44
2022-07-30T11:38:01.932Z,101545.13
2022-07-30T11:43:34.931Z,101542.03
2022-07-30T11:46:07.150Z,101537.16
2022-07-30T11:48:39.146Z,101536.56
2022-07-30T11:51:05.919Z,101543.03
2022-07-30T11:53:33.044Z,101542.22
2022-07-30T11:56:02.274Z,101536.69
2022-07-30T11:58:29.961Z,101542.75
2022-07-30T12:01:00.822Z,101539.78
2022-07-30T12:03:29.864Z,101528.47
2022-07-30T12:05:56.921Z,101524.16
2022-07-30T12:08:33.379Z,101531.75
2022-07-30T12:11:03.123Z,101524.75
2022-07-30T12:13:45.462Z,101525.31
2022-07-30T12:16:16.274Z,101524.34
2022-07-30T12:18:43.993Z,101531.75
2022-07-30T12:21:17.289Z,101533.91
2022-07-30T12:23:59.463Z,101532.31
2022-07-30T12:26:29.319Z,101529.69
2022-07-30T12:29:01.458Z,101535.88
2022-07-30T12:31:28.415Z,101541.75
2022-07-30T12:33:58.940Z,101531.22
2022-07-30T12:36:26.093Z,101537.38
2022-07-30T12:38:54.569Z,101531.66
2022-07-30T12:41:21.964Z,101529.25
2022-07-30T12:43:55.777Z,101537.25
2022-07-30T12:46:27.035Z,101530.53
2022-07-30T12:49:10.281Z,101521.69
2022-07-30T12:51:59.733Z,101519.13
2022-07-30T12:54:27.690Z,101520.91
2022-07-30T12:56:59.406Z,101531.03
2022-07-30T12:59:27.123Z,101526.09
2022-07-30T13:01:54.440Z,101520.88
2022-07-30T13:04:20.991Z,101514.00
2022-07-30T13:07:10.585Z,101517.63
2022-07-30T13:09:37.673Z,101514.88
2022-07-30T13:12:05.266Z,101508.13
2022-07-30T13:14:32.306Z,101513.53
2022-07-30T13:16:59.121Z,101512.22
2022-07-30T13:19:26.980Z,101513.22
2022-07-30T13:21:53.571Z,101506.72
2022-07-30T13:24:20.692Z,101502.38
2022-07-30T13:26:47.800Z,101502.38
2022-07-30T13:29:17.172Z,101502.25
2022-07-30T13:31:43.902Z,101498.66
2022-07-30T13:34:12.094Z,101498.78
2022-07-30T13:36:38.840Z,101503.59
2022-07-30T13:39:05.289Z,101496.41
2022-07-30T13:41:31.730Z,101492.13
2022-07-30T13:43:58.199Z,101503.25
2022-07-30T13:46:24.834Z,101497.09
2022-07-30T13:48:52.105Z,101493.38
2022-07-30T13:51:18.810Z,101495.06
2022-07-30T13:53:45.481Z,101493.22
2022-07-30T13:56:12.408Z,101485.44
2022-07-30T13:58:39.695Z,101492.84
2022-07-30T14:01:07.037Z,101491.41
2022-07-30T14:03:33.829Z,101487.88
2022-07-30T14:06:10.178Z,101484.66
2022-07-30T14:08:38.708Z,101487.53
2022-07-30T14:11:05.259Z,101480.72
2022-07-30T14:13:31.730Z,101478.31
2022-07-30T14:15:58.423Z,101473.72
2022-07-30T14:18:24.871Z,101477.00
2022-07-30T14:20:53.580Z,101475.88
2022-07-30T14:23:20.261Z,101479.69
2022-07-30T14:25:46.830Z,101478.44
2022-07-30T14:28:13.915Z,101470.53
2022-07-30T14:30:40.380Z,101478.28
2022-07-30T14:33:06.854Z,101467.59
2022-07-30T14:35:33.380Z,101472.69
2022-07-30T14:37:59.936Z,101475.13
2022-07-30T14:40:26.440Z,101471.28
2022-07-30T14:42:52.908Z,101465.53
2022-07-30T14:45:23.089Z,101467.53
2022-07-30T14:47:49.512Z,101460.44
2022-07-30T14:50:15.947Z,101472.56
2022-07-30T14:52:42.564Z,101467.44
2022-07-30T14:55:09.945Z,101473.00
2022-07-30T14:57:36.725Z,101473.34
2022-07-30T15:00:07.488Z,101470.69
2022-07-30T15:02:34.399Z,101474.53
2022-07-30T15:05:00.816Z,101467.13
2022-07-30T15:07:27.658Z,101466.41
2022-07-30T15:09:54.055Z,101464.34
2022-07-30T15:12:23.583Z,101475.03
2022-07-30T15:14:53.879Z,101472.56
2022-07-30T15:17:20.458Z,101469.41
2022-07-30T15:19:50.304Z,101475.63
2022-07-30T15:22:18.243Z,101477.72
2022-07-30T15:24:44.736Z,101482.22
2022-07-30T15:27:11.569Z,101479.28
2022-07-30T15:29:38.213Z,101476.50
2022-07-30T15:32:05.275Z,101478.50
2022-07-30T15:34:34.481Z,101479.81
2022-07-30T15:37:02.623Z,101477.34
2022-07-30T15:39:32.222Z,101466.84
2022-07-30T15:42:06.002Z,101477.06
2022-07-30T15:44:32.889Z,101471.66
2022-07-30T15:47:00.306Z,101478.25
2022-07-30T15:49:27.806Z,101487.81
2022-07-30T15:51:54.648Z,101482.19
2022-07-30T15:54:23.430Z,101476.84
2022-07-30T15:56:51.178Z,101473.44
2022-07-30T15:59:18.014Z,101468.88
2022-07-30T16:01:44.624Z,101473.16
2022-07-30T16:04:19.499Z,101464.81
2022-07-30T16:06:47.594Z,101465.53
2022-07-30T16:09:14.681Z,101467.09
2022-07-30T16:11:43.002Z,101466.97
2022-07-30T16:14:10.008Z,101469.22
2022-07-30T16:16:36.736Z,101460.44
2022-07-30T16:19:03.358Z,101460.00
2022-07-30T16:21:29.928Z,101469.78
2022-07-30T16:23:56.648Z,101456.53
2022-07-30T16:26:23.116Z,101466.19
2022-07-30T16:28:49.882Z,101470.88
2022-07-30T16:31:16.564Z,101462.28
2022-07-30T16:33:43.208Z,101465.03
2022-07-30T16:36:10.065Z,101459.06
2022-07-30T16:38:36.594Z,101473.66
2022-07-30T16:41:03.650Z,101460.31
2022-07-30T16:43:31.843Z,101466.34
2022-07-30T16:45:59.454Z,101474.59
2022-07-30T16:48:26.642Z,101462.78
2022-07-30T16:50:53.285Z,101461.69
2022-07-30T16:53:20.071Z,101463.44
2022-07-30T16:55:47.002Z,101466.63
2022-07-30T16:58:13.652Z,101472.75
2022-07-30T17:00:40.220Z,101471.25
2022-07-30T17:03:06.869Z,101456.19
2022-07-30T17:05:33.566Z,101468.84
2022-07-30T17:08:00.186Z,101469.09
2022-07-30T17:10:27.268Z,101461.59
2022-07-30T17:12:56.958Z,101477.41
2022-07-30T17:15:32.211Z,101463.59
2022-07-30T17:18:03.050Z,101464.75
2022-07-30T17:20:31.249Z,101455.84
2022-07-30T17:22:57.837Z,101474.88
2022-07-30T17:25:28.341Z,101476.75
2022-07-30T17:27:56.263Z,101470.94
2022-07-30T17:30:23.588Z,101476.56
2022-07-30T17:32:50.965Z,101484.94
2022-07-30T17:35:17.731Z,101480.69
2022-07-30T17:37:44.359Z,101482.75
2022-07-30T17:40:28.843Z,101495.53
2022-07-30T17:43:03.231Z,101488.22
2022-07-30T17:45:30.712Z,101497.97
2022-07-30T17:47:57.853Z,101491.44
2022-07-30T17:50:24.291Z,101502.59
2022-07-30T17:52:50.841Z,101494.56
2022-07-30T17:55:17.395Z,101498.78
2022-07-30T17:57:43.804Z,101497.00
2022-07-30T18:00:10.976Z,101492.75
2022-07-30T18:02:37.416Z,101490.16
2022-07-30T18:05:04.192Z,101497.25
2022-07-30T18:07:31.088Z,101494.19
2022-07-30T18:09:57.593Z,101501.00
2022-07-30T18:12:24.085Z,101505.72
2022-07-30T18:14:50.499Z,101495.63
2022-07-30T18:17:16.932Z,101500.34
2022-07-30T18:19:43.464Z,101498.50
2022-07-30T18:22:10.062Z,101497.25
2022-07-30T18:24:40.360Z,101500.69
2022-07-30T18:27:11.586Z,101504.69
2022-07-30T18:29:38.173Z,101510.16
2022-07-30T18:32:05.486Z,101501.97
2022-07-30T18:34:32.382Z,101508.28
2022-07-30T18:36:58.877Z,101511.00
2022-07-30T18:39:25.377Z,101510.59
2022-07-30T18:41:51.914Z,101517.56
2022-07-30T18:44:18.446Z,101514.66
2022-07-30T18:46:45.463Z,101519.97
2022-07-30T18:49:34.270Z,101516.41
2022-07-30T18:52:00.355Z,101529.31
2022-07-30T18:54:27.300Z,101524.09
2022-07-30T18:56:53.750Z,101524.34
2022-07-30T18:59:20.208Z,101525.03
2022-07-30T19:01:46.637Z,101527.38
2022-07-30T19:04:13.258Z,101520.72
2022-07-30T19:06:39.945Z,101522.47
2022-07-30T19:09:10.120Z,101520.84
2022-07-30T19:11:45.266Z,101521.66
2022-07-30T19:14:13.109Z,101519.19
2022-07-30T19:16:40.586Z,101533.28
2022-07-30T19:19:07.074Z,101531.19
2022-07-30T19:21:33.810Z,101542.13
2022-07-30T19:24:00.473Z,101542.53
2022-07-30T19:26:26.978Z,101552.13
2022-07-30T19:28:53.388Z,101552.78
2022-07-30T19:31:19.887Z,101546.47
2022-07-30T19:33:46.352Z,101556.28
2022-07-30T19:36:15.095Z,101556.28
2022-07-30T19:38:45.053Z,101557.50
2022-07-30T19:41:11.979Z,101547.00
2022-07-30T19:43:40.592Z,101547.38
2022-07-30T19:46:07.083Z,101550.91
2022-07-30T19:48:36.085Z,101557.97
2022-07-30T19:51:03.461Z,101552.94
2022-07-30T19:53:34.105Z,101560.41
2022-07-30T19:56:04.405Z,101562.97
2022-07-30T19:58:36.607Z,101563.44
2022-07-30T20:01:03.979Z,101565.69
2022-07-30T20:03:35.663Z,101567.06
2022-07-30T20:06:02.258Z,101574.72
2022-07-30T20:08:29.555Z,101575.72
2022-07-30T20:10:57.755Z,101570.22
2022-07-30T20:13:44.518Z,101578.34
2022-07-30T20:16:14.311Z,101578.66
2022-07-30T20:18:42.878Z,101582.38
2022-07-30T20:21:15.187Z,101582.09
2022-07-30T20:23:43.454Z,101589.31
2022-07-30T20:26:13.700Z,101580.28
2022-07-30T20:28:42.103Z,101587.53
2022-07-30T20:31:08.802Z,101586.44
2022-07-30T20:33:38.083Z,101586.13
2022-07-30T20:36:06.087Z,101595.88
2022-07-30T20:38:37.590Z,101594.97
2022-07-30T20:41:09.930Z,101584.50
2022-07-30T20:43:51.592Z,101594.03
2022-07-30T20:46:20.332Z,101593.81
2022-07-30T20:48:47.131Z,101604.00
2022-07-30T20:51:14.003Z,101597.44
2022-07-30T20:53:41.881Z,101604.56
2022-07-30T20:56:12.211Z,101593.91
2022-07-30T20:58:40.901Z,101602.41
2022-07-30T21:01:07.790Z,101601.78
2022-07-30T21:03:34.292Z,101603.66
2022-07-30T21:06:02.596Z,101599.16
2022-07-30T21:08:29.145Z,101609.63
2022-07-30T21:10:57.647Z,101610.66
2022-07-30T21:13:26.996Z,101614.41
2022-07-30T21:16:02.355Z,101607.66
2022-07-30T21:18:29.773Z,101605.16
2022-07-30T21:20:57.329Z,101607.41
2022-07-30T21:23:23.866Z,101605.25
2022-07-30T21:26:01.139Z,101607.13
2022-07-30T21:28:35.248Z,101616.28
2022-07-30T21:31:07.078Z,101610.41
2022-07-30T21:33:36.186Z,101609.94
2022-07-30T21:36:02.721Z,101604.72
2022-07-30T21:38:31.754Z,101612.56
2022-07-30T21:40:58.523Z,101607.78
2022-07-30T21:43:29.995Z,101606.47
2022-07-30T21:45:57.628Z,101601.91
2022-07-30T21:48:24.438Z,101606.47
2022-07-30T21:50:51.063Z,101606.47
2022-07-30T21:53:17.474Z,101602.59
2022-07-30T21:55:56.886Z,101605.81
2022-07-30T21:58:26.360Z,101609.38
2022-07-30T22:00:54.968Z,101608.53
2022-07-30T22:04:03.247Z,101605.72
2022-07-30T22:06:12.679Z,101609.06
2022-07-30T22:08:39.648Z,101603.00
2022-07-30T22:11:09.055Z,101602.16
2022-07-30T22:13:36.195Z,101604.22
2022-07-30T22:16:21.325Z,101601.88
2022-07-30T22:18:48.054Z,101607.47
2022-07-30T22:21:14.665Z,101599.91
2022-07-30T22:23:41.353Z,101605.13
2022-07-30T22:26:23.702Z,101603.63
2022-07-30T22:28:53.201Z,101603.00
2022-07-30T22:31:20.952Z,101601.50
2022-07-30T22:33:49.793Z,101598.13
2022-07-30T22:36:17.828Z,101598.13
2022-07-30T22:41:39.184Z,101587.84
2022-07-30T22:44:06.644Z,101587.38
2022-07-30T22:46:35.963Z,101588.38
2022-07-30T22:49:04.416Z,101590.81
2022-07-30T22:52:00.848Z,101589.16
2022-07-30T22:54:18.002Z,101581.56
2022-07-30T22:56:46.277Z,101577.94
2022-07-30T22:59:13.664Z,101579.41
2022-07-30T23:01:43.521Z,101590.22
2022-07-30T23:04:10.369Z,101583.16
2022-07-30T23:06:37.211Z,101582.50
2022-07-30T23:09:07.643Z,101573.06
2022-07-30T23:11:38.733Z,101575.59
2022-07-30T23:12:29.024Z,101597.47
2022-07-30T23:14:06.632Z,101575.75
2022-07-30T23:16:33.102Z,101562.41
2022-07-30T23:18:59.869Z,101561.25
2022-07-30T23:21:26.316Z,101564.63
2022-07-30T23:23:53.064Z,101563.13
2022-07-30T23:26:19.593Z,101569.78
2022-07-30T23:28:47.271Z,101573.31
2022-07-30T23:31:13.770Z,101571.81
2022-07-30T23:33:43.091Z,101565.09
2022-07-30T23:36:09.839Z,101571.16
2022-07-30T23:38:36.935Z,101560.03
2022-07-30T23:41:04.279Z,101563.75
2022-07-30T23:43:31.475Z,101565.16
2022-07-30T23:45:58.182Z,101565.34
2022-07-30T23:48:24.667Z,101561.81
2022-07-30T23:50:51.864Z,101559.28
2022-07-30T23:53:18.509Z,101560.44
2022-07-30T23:55:47.585Z,101567.72
2022-07-30T23:58:14.752Z,101564.34
